Time;durP1;ratioP1;P1;durP2;ratioP2;P2;SDS_P1;SDS_P2;PMS_P1;PMS_P2;Temp;Humidity;BMP_temperature;BMP_pressure;BME280_temperature;BME280_humidity;BME280_pressure;Samples;Min_cycle;Max_cycle;Signal;HPM_P1;HPM_P2
2022/03/05 00:02:07;;;;;;;8.20;7.35;;;17.90;44.60;;;;;;5095889;28;20489;-48
2022/03/05 00:04:34;;;;;;;8.27;7.47;;;17.90;44.60;;;;;;5096238;28;20033;-48
2022/03/05 00:07:01;;;;;;;9.68;7.40;;;17.90;44.60;;;;;;5096170;28;20130;-47
2022/03/05 00:09:27;;;;;;;7.97;7.07;;;17.90;44.60;;;;;;5096167;28;20028;-45
2022/03/05 00:11:52;;;;;;;8.45;7.65;;;17.90;44.60;;;;;;5095039;28;20093;-44
2022/03/05 00:14:18;;;;;;;7.97;7.18;;;17.90;44.50;;;;;;5096711;28;20065;-44
2022/03/05 00:16:45;;;;;;;8.50;7.60;;;17.90;44.50;;;;;;5096446;28;20016;-44
2022/03/05 00:19:11;;;;;;;7.90;7.10;;;17.80;44.50;;;;;;5096044;28;20044;-44
2022/03/05 00:21:38;;;;;;;8.30;7.50;;;17.80;44.50;;;;;;5096521;28;20024;-44
2022/03/05 00:24:05;;;;;;;9.05;8.15;;;17.80;44.50;;;;;;5096706;28;20008;-46
2022/03/05 00:26:30;;;;;;;8.63;7.78;;;17.80;44.50;;;;;;5094818;28;20012;-44
2022/03/05 00:28:56;;;;;;;8.77;7.88;;;17.80;44.50;;;;;;5096564;28;20502;-47
2022/03/05 00:31:23;;;;;;;8.80;7.82;;;17.80;44.50;;;;;;5096018;28;20016;-47
2022/03/05 00:33:49;;;;;;;8.73;7.80;;;17.80;44.50;;;;;;5096065;28;20042;-48
2022/03/05 00:36:16;;;;;;;9.75;8.05;;;17.80;44.50;;;;;;5098011;28;20016;-47
2022/03/05 00:38:42;;;;;;;8.98;7.63;;;17.80;44.50;;;;;;5099428;28;20024;-49
2022/03/05 00:41:08;;;;;;;9.20;7.93;;;17.80;44.50;;;;;;5098328;28;20444;-45
2022/03/05 00:43:34;;;;;;;9.93;7.53;;;17.80;44.50;;;;;;5095366;28;20028;-44
2022/03/05 00:46:00;;;;;;;8.57;7.78;;;17.80;44.50;;;;;;5095282;28;20463;-48
2022/03/05 00:48:26;;;;;;;9.27;8.10;;;17.80;44.50;;;;;;5095351;28;20386;-45
2022/03/05 00:50:52;;;;;;;9.80;7.95;;;17.80;44.50;;;;;;5095909;28;20004;-50
2022/03/05 00:53:21;;;;;;;8.38;7.57;;;17.80;44.60;;;;;;5094420;28;20016;-45
2022/03/05 00:55:47;;;;;;;9.10;7.75;;;17.80;44.50;;;;;;5095254;28;20023;-48
2022/03/05 00:58:14;;;;;;;9.18;8.10;;;17.70;44.50;;;;;;5093685;28;20016;-44
2022/03/05 01:00:41;;;;;;;8.10;7.30;;;17.80;44.50;;;;;;5093699;28;20115;-45
2022/03/05 01:03:07;;;;;;;9.02;8.07;;;17.80;44.50;;;;;;5095106;28;20020;-43
2022/03/05 01:05:33;;;;;;;9.68;8.55;;;17.70;44.40;;;;;;5094912;28;20034;-44
2022/03/05 01:07:59;;;;;;;8.52;7.72;;;17.70;44.50;;;;;;5095139;28;20012;-43
2022/03/05 01:10:26;;;;;;;10.02;8.88;;;17.70;44.50;;;;;;5095025;28;20013;-45
2022/03/05 01:12:51;;;;;;;9.40;8.40;;;17.70;44.40;;;;;;5094770;28;20030;-47
2022/03/05 01:15:17;;;;;;;8.65;7.60;;;17.70;44.40;;;;;;5094924;28;20023;-47
2022/03/05 01:17:43;;;;;;;8.68;7.85;;;17.70;44.50;;;;;;5095210;28;20477;-43
2022/03/05 01:20:12;;;;;;;9.98;8.98;;;17.70;44.50;;;;;;5094799;28;20105;-44
2022/03/05 01:22:37;;;;;;;9.30;8.10;;;17.70;44.50;;;;;;5095226;28;20024;-44
2022/03/05 01:25:03;;;;;;;10.93;8.40;;;17.70;44.50;;;;;;5094240;28;20008;-43
2022/03/05 01:27:29;;;;;;;9.50;8.52;;;17.70;44.40;;;;;;5093600;28;20090;-44
2022/03/05 01:29:57;;;;;;;9.10;8.20;;;17.70;44.50;;;;;;5095122;28;20020;-44
2022/03/05 01:32:23;;;;;;;9.30;8.40;;;17.70;44.40;;;;;;5095018;28;20024;-45
2022/03/05 01:34:50;;;;;;;10.23;8.60;;;17.70;44.50;;;;;;5076979;28;20020;-43
2022/03/05 01:37:15;;;;;;;9.07;8.10;;;17.70;44.50;;;;;;5094803;28;20020;-44
2022/03/05 01:39:43;;;;;;;8.85;8.00;;;17.70;44.50;;;;;;5094713;28;20020;-44
2022/03/05 01:42:10;;;;;;;9.70;8.70;;;17.60;44.40;;;;;;5093476;28;20032;-47
2022/03/05 01:44:36;;;;;;;8.82;8.02;;;17.60;44.40;;;;;;5093415;28;20089;-47
2022/03/05 01:47:02;;;;;;;9.05;8.15;;;17.60;44.40;;;;;;5094500;28;20458;-46
2022/03/05 01:49:29;;;;;;;9.02;8.18;;;17.60;44.40;;;;;;5094581;28;20020;-43
2022/03/05 01:51:55;;;;;;;8.73;7.93;;;17.60;44.40;;;;;;5094515;28;20086;-47
2022/03/05 01:54:21;;;;;;;9.10;8.20;;;17.60;44.40;;;;;;5093818;28;20012;-43
2022/03/05 01:56:47;;;;;;;9.02;8.13;;;17.60;44.40;;;;;;5095218;28;20019;-43
2022/03/05 01:59:13;;;;;;;9.05;8.15;;;17.60;44.40;;;;;;5097196;28;20020;-43
2022/03/05 02:01:39;;;;;;;9.85;8.82;;;17.60;44.40;;;;;;5096834;28;20000;-43
2022/03/05 02:04:05;;;;;;;10.13;8.70;;;17.60;44.40;;;;;;5095467;28;20012;-45
2022/03/05 02:06:32;;;;;;;9.55;8.57;;;17.60;44.40;;;;;;5095369;28;20036;-44
2022/03/05 02:08:58;;;;;;;9.02;8.13;;;17.60;44.40;;;;;;5095680;28;20534;-43
2022/03/05 02:11:24;;;;;;;10.35;8.65;;;17.60;44.40;;;;;;5094167;28;20039;-44
2022/03/05 02:13:50;;;;;;;9.60;8.68;;;17.60;44.40;;;;;;5093558;28;20023;-43
2022/03/05 02:16:15;;;;;;;9.60;8.68;;;17.60;44.40;;;;;;5094164;28;20024;-42
2022/03/05 02:18:45;;;;;;;9.82;8.40;;;17.60;44.40;;;;;;5094079;28;20513;-42
2022/03/05 02:21:12;;;;;;;9.87;8.87;;;17.60;44.40;;;;;;5093344;28;20024;-43
2022/03/05 02:23:38;;;;;;;9.95;8.95;;;17.50;44.30;;;;;;5093486;28;20051;-42
2022/03/05 02:26:04;;;;;;;9.60;8.60;;;17.50;44.30;;;;;;5092407;28;20020;-43
2022/03/05 02:28:30;;;;;;;9.32;8.40;;;17.50;44.30;;;;;;5094705;28;20043;-43
2022/03/05 02:30:56;;;;;;;12.23;9.00;;;17.50;44.30;;;;;;5094551;28;20012;-43
2022/03/05 02:33:22;;;;;;;9.65;8.75;;;17.50;44.30;;;;;;5094337;28;20528;-42
2022/03/05 02:35:48;;;;;;;9.63;8.73;;;17.50;44.40;;;;;;5094139;28;20032;-42
2022/03/05 02:38:16;;;;;;;10.18;9.20;;;17.50;44.30;;;;;;5093933;28;20142;-43
2022/03/05 02:40:42;;;;;;;12.98;9.20;;;17.50;44.30;;;;;;5094104;28;20028;-44
2022/03/05 02:43:08;;;;;;;10.07;9.02;;;17.50;44.30;;;;;;5093516;28;20031;-43
2022/03/05 02:45:34;;;;;;;8.88;8.07;;;17.50;44.30;;;;;;5094436;28;20068;-42
2022/03/05 02:48:05;;;;;;;9.77;8.77;;;17.50;44.30;;;;;;5093708;28;20478;-43
2022/03/05 02:50:31;;;;;;;9.68;8.77;;;17.50;44.40;;;;;;5094900;28;20094;-42
2022/03/05 02:52:56;;;;;;;9.57;8.68;;;17.50;44.40;;;;;;5093508;28;20020;-43
2022/03/05 02:55:23;;;;;;;9.27;8.38;;;17.40;44.30;;;;;;5094722;28;20032;-43
2022/03/05 02:57:48;;;;;;;9.20;8.30;;;17.50;44.40;;;;;;5093856;28;20023;-44
2022/03/05 03:00:15;;;;;;;8.77;7.93;;;17.40;44.30;;;;;;5094526;28;20020;-42
2022/03/05 03:02:41;;;;;;;10.68;8.90;;;17.40;44.30;;;;;;5094692;28;20032;-43
2022/03/05 03:05:08;;;;;;;9.13;8.23;;;17.50;44.90;;;;;;5095974;28;20490;-43
2022/03/05 03:07:35;;;;;;;9.25;8.38;;;17.40;44.30;;;;;;5096135;28;20012;-44
2022/03/05 03:10:01;;;;;;;10.45;8.60;;;17.40;44.30;;;;;;5096531;28;20026;-44
2022/03/05 03:12:27;;;;;;;12.02;8.35;;;17.40;44.30;;;;;;5096005;28;20016;-43
2022/03/05 03:14:52;;;;;;;10.13;9.10;;;17.40;44.30;;;;;;5095781;28;20078;-44
2022/03/05 03:17:19;;;;;;;10.32;9.00;;;17.40;44.30;;;;;;5094963;28;20446;-42
2022/03/05 03:19:46;;;;;;;10.07;9.00;;;17.40;44.30;;;;;;5094510;28;20035;-45
2022/03/05 03:22:12;;;;;;;10.35;9.35;;;17.40;44.30;;;;;;5093625;28;20051;-44
2022/03/05 03:24:38;;;;;;;9.73;8.65;;;17.40;44.30;;;;;;5095203;28;20031;-43
2022/03/05 03:27:04;;;;;;;9.98;8.98;;;17.40;44.40;;;;;;5093910;28;20012;-42
2022/03/05 03:29:30;;;;;;;9.85;8.80;;;17.40;44.30;;;;;;5093317;28;20016;-42
2022/03/05 03:31:57;;;;;;;9.82;8.82;;;17.40;44.40;;;;;;5093327;28;20041;-41
2022/03/05 03:34:23;;;;;;;10.80;9.57;;;17.40;44.30;;;;;;5092257;28;20027;-42
2022/03/05 03:36:49;;;;;;;11.35;9.75;;;17.40;44.30;;;;;;5093279;28;20035;-42
2022/03/05 03:39:16;;;;;;;10.57;9.48;;;17.40;44.40;;;;;;5092862;28;20474;-43
2022/03/05 03:41:42;;;;;;;9.88;8.85;;;17.40;44.90;;;;;;5092865;28;20012;-43
2022/03/05 03:44:07;;;;;;;9.63;8.73;;;17.40;44.40;;;;;;5091762;28;20017;-42
2022/03/05 03:46:34;;;;;;;11.13;9.27;;;17.30;44.30;;;;;;5092999;28;20024;-45
2022/03/05 03:49:00;;;;;;;10.65;9.57;;;17.30;44.30;;;;;;5094659;28;20074;-44
2022/03/05 03:51:25;;;;;;;10.00;9.00;;;17.30;44.30;;;;;;5097151;28;20012;-45
2022/03/05 03:53:51;;;;;;;11.05;9.77;;;17.30;44.30;;;;;;5096413;28;20466;-43
2022/03/05 03:56:17;;;;;;;10.90;9.35;;;17.40;44.30;;;;;;5096339;28;20466;-43
2022/03/05 03:58:43;;;;;;;10.77;9.63;;;17.30;44.30;;;;;;5096768;28;20078;-43
2022/03/05 04:01:09;;;;;;;10.43;9.20;;;17.30;44.30;;;;;;5096452;28;20024;-43
2022/03/05 04:03:35;;;;;;;9.73;8.82;;;17.30;44.30;;;;;;5096359;28;20066;-44
2022/03/05 04:06:01;;;;;;;10.10;9.10;;;17.30;44.30;;;;;;5097234;28;20028;-44
2022/03/05 04:08:43;;;;;;;11.35;9.57;;;17.30;44.30;;;;;;5096283;28;20055;-43
2022/03/05 04:11:10;;;;;;;9.90;8.65;;;17.30;44.30;;;;;;5097037;28;20462;-43
2022/03/05 04:13:36;;;;;;;10.90;9.30;;;17.30;44.30;;;;;;5097350;28;20462;-43
2022/03/05 04:16:02;;;;;;;10.90;9.77;;;17.30;44.30;;;;;;5096277;28;20030;-45
2022/03/05 04:18:28;;;;;;;10.85;8.93;;;17.30;44.30;;;;;;5094383;28;20096;-46
2022/03/05 04:20:55;;;;;;;10.30;9.30;;;17.30;44.30;;;;;;5096602;28;20069;-46
2022/03/05 04:23:22;;;;;;;10.20;8.90;;;17.30;44.30;;;;;;5097394;28;20020;-43
2022/03/05 04:25:48;;;;;;;10.60;9.60;;;17.20;44.20;;;;;;5097279;28;20019;-46
2022/03/05 04:28:14;;;;;;;9.27;8.38;;;17.30;44.30;;;;;;5097618;28;20016;-44
2022/03/05 04:30:41;;;;;;;10.52;9.38;;;17.20;44.80;;;;;;5096925;28;20016;-45
2022/03/05 04:33:06;;;;;;;10.43;9.35;;;17.20;44.20;;;;;;5095756;28;20027;-47
2022/03/05 04:35:33;;;;;;;10.30;9.25;;;17.20;44.30;;;;;;5094515;28;20024;-44
2022/03/05 04:37:58;;;;;;;10.95;9.32;;;17.20;44.30;;;;;;5094097;28;20107;-43
2022/03/05 04:40:24;;;;;;;10.30;9.18;;;17.20;44.30;;;;;;5095512;28;20016;-44
2022/03/05 04:42:50;;;;;;;9.77;8.88;;;17.20;44.30;;;;;;5095586;28;20024;-46
2022/03/05 04:45:16;;;;;;;12.45;10.13;;;17.20;44.30;;;;;;5095598;28;20035;-47
2022/03/05 04:47:42;;;;;;;12.45;9.32;;;17.20;44.30;;;;;;5095786;28;20092;-44
2022/03/05 04:50:11;;;;;;;11.07;9.80;;;17.20;44.30;;;;;;5095034;28;20490;-45
2022/03/05 04:52:37;;;;;;;10.13;9.07;;;17.20;44.20;;;;;;5096658;28;20020;-46
2022/03/05 04:55:04;;;;;;;10.07;8.98;;;17.20;44.30;;;;;;5093929;28;20044;-46
2022/03/05 04:57:30;;;;;;;10.52;9.48;;;17.20;44.30;;;;;;5094973;28;20486;-45
2022/03/05 04:59:57;;;;;;;10.95;9.80;;;17.20;44.20;;;;;;5094594;28;20039;-45
2022/03/05 05:02:22;;;;;;;10.73;9.57;;;17.20;44.20;;;;;;5096030;28;20072;-46
2022/03/05 05:04:49;;;;;;;10.90;9.80;;;17.20;44.30;;;;;;5095975;28;20095;-44
2022/03/05 05:07:15;;;;;;;11.38;10.20;;;17.20;44.30;;;;;;5097614;28;20012;-48
2022/03/05 05:09:41;;;;;;;10.63;9.63;;;17.20;44.30;;;;;;5098091;28;20093;-48
2022/03/05 05:12:08;;;;;;;11.77;9.35;;;17.20;44.30;;;;;;5097970;28;20030;-47
2022/03/05 05:14:35;;;;;;;12.45;9.90;;;17.20;44.30;;;;;;5098341;28;20383;-45
2022/03/05 05:17:01;;;;;;;10.85;9.85;;;17.10;44.30;;;;;;5096495;28;20024;-45
2022/03/05 05:19:28;;;;;;;11.65;9.10;;;17.20;44.30;;;;;;5095142;28;20042;-48
2022/03/05 05:21:59;;;;;;;11.38;9.57;;;17.20;44.30;;;;;;5095754;28;20036;-46
2022/03/05 05:24:30;;;;;;;11.07;9.95;;;17.20;44.30;;;;;;5096447;28;20012;-46
2022/03/05 05:26:56;;;;;;;10.82;9.43;;;17.10;44.20;;;;;;5096272;28;20095;-46
2022/03/05 05:29:22;;;;;;;11.02;9.90;;;17.10;44.20;;;;;;5097225;28;20461;-47
2022/03/05 05:31:48;;;;;;;10.25;8.88;;;17.10;44.20;;;;;;5098643;28;20043;-45
2022/03/05 05:34:14;;;;;;;10.40;9.38;;;17.10;44.20;;;;;;5099672;28;20012;-48
2022/03/05 05:36:40;;;;;;;9.98;8.98;;;17.10;44.20;;;;;;5100637;28;20450;-50
2022/03/05 05:39:06;;;;;;;10.95;9.65;;;17.10;44.20;;;;;;5100186;28;20016;-47
2022/03/05 05:41:32;;;;;;;10.80;9.70;;;17.10;44.20;;;;;;5099554;28;20012;-47
2022/03/05 05:43:59;;;;;;;10.32;9.23;;;17.10;44.20;;;;;;5097300;28;20024;-46
2022/03/05 05:46:25;;;;;;;10.10;9.10;;;17.10;44.20;;;;;;5095933;28;20012;-44
2022/03/05 05:48:51;;;;;;;13.35;10.13;;;17.10;44.20;;;;;;5095499;28;20015;-45
2022/03/05 05:51:17;;;;;;;10.68;9.63;;;17.10;44.20;;;;;;5095737;28;20024;-49
2022/03/05 05:53:44;;;;;;;10.18;9.15;;;17.10;44.20;;;;;;5095942;28;20024;-44
2022/03/05 05:56:09;;;;;;;10.65;9.45;;;17.10;44.20;;;;;;5095278;28;20103;-46
2022/03/05 05:58:35;;;;;;;9.88;8.88;;;17.10;44.20;;;;;;5097708;28;20051;-46
2022/03/05 06:01:01;;;;;;;10.20;9.10;;;17.10;44.20;;;;;;5097586;28;20099;-46
2022/03/05 06:03:27;;;;;;;11.40;9.55;;;17.10;44.20;;;;;;5097943;28;20020;-44
2022/03/05 06:05:53;;;;;;;10.32;9.30;;;17.10;44.20;;;;;;5096822;28;20035;-46
2022/03/05 06:08:19;;;;;;;11.27;9.55;;;17.10;44.20;;;;;;5097674;28;20099;-47
2022/03/05 06:10:44;;;;;;;11.23;9.27;;;17.10;44.20;;;;;;5096705;28;20050;-45
2022/03/05 06:13:10;;;;;;;10.10;9.10;;;17.10;44.20;;;;;;5094987;28;20016;-46
2022/03/05 06:15:37;;;;;;;10.55;9.45;;;17.00;44.10;;;;;;5094877;28;20020;-45
2022/03/05 06:18:03;;;;;;;10.98;9.57;;;17.10;44.20;;;;;;5094802;28;20024;-45
2022/03/05 06:20:29;;;;;;;10.60;9.10;;;17.00;44.20;;;;;;5076510;28;20048;-44
2022/03/05 06:22:55;;;;;;;10.70;9.40;;;17.00;44.10;;;;;;5094579;28;20379;-44
2022/03/05 06:25:21;;;;;;;11.65;9.70;;;17.00;44.10;;;;;;5094482;28;20439;-44
2022/03/05 06:27:46;;;;;;;10.07;9.05;;;17.00;44.10;;;;;;5092749;28;20113;-47
2022/03/05 06:30:12;;;;;;;11.43;10.18;;;17.00;44.10;;;;;;5092333;28;20371;-47
2022/03/05 06:32:39;;;;;;;10.75;9.65;;;17.00;44.10;;;;;;5093469;28;20020;-43
2022/03/05 06:35:05;;;;;;;9.88;8.88;;;17.00;44.10;;;;;;5093410;28;20027;-46
2022/03/05 06:37:31;;;;;;;10.63;9.30;;;17.00;44.60;;;;;;5092039;28;20111;-46
2022/03/05 06:39:58;;;;;;;9.88;8.85;;;17.00;44.10;;;;;;5093391;28;20026;-47
2022/03/05 06:42:24;;;;;;;14.68;10.00;;;17.00;44.10;;;;;;5093800;28;20031;-46
2022/03/05 06:44:50;;;;;;;12.18;9.18;;;17.00;44.10;;;;;;5093923;28;20061;-44
2022/03/05 06:47:17;;;;;;;10.40;9.30;;;17.00;44.60;;;;;;5093553;28;20021;-43
2022/03/05 06:49:45;;;;;;;10.52;9.52;;;17.00;44.00;;;;;;5093553;28;20044;-44
2022/03/05 06:52:12;;;;;;;11.20;9.70;;;17.00;44.10;;;;;;5093365;28;20051;-45
2022/03/05 06:54:38;;;;;;;10.70;8.65;;;17.00;44.00;;;;;;5092627;28;20091;-44
2022/03/05 06:57:04;;;;;;;11.15;9.88;;;17.00;44.00;;;;;;5093493;28;20057;-42
2022/03/05 06:59:29;;;;;;;10.00;9.05;;;17.00;44.00;;;;;;5093711;28;20023;-43
2022/03/05 07:01:55;;;;;;;10.32;9.32;;;17.00;44.00;;;;;;5093711;28;20012;-46
2022/03/05 07:04:20;;;;;;;11.63;9.18;;;17.00;44.00;;;;;;5093532;28;20475;-47
2022/03/05 07:06:47;;;;;;;11.38;9.20;;;17.00;44.00;;;;;;5093677;28;20084;-43
2022/03/05 07:09:14;;;;;;;10.43;9.43;;;17.00;44.00;;;;;;5093437;28;20024;-44
2022/03/05 07:11:39;;;;;;;10.27;9.27;;;17.00;44.00;;;;;;5093439;28;20017;-42
2022/03/05 07:14:06;;;;;;;10.60;9.60;;;17.00;44.00;;;;;;5093307;28;20374;-43
2022/03/05 07:16:32;;;;;;;11.13;9.90;;;17.00;44.00;;;;;;5094237;28;20070;-43
2022/03/05 07:18:58;;;;;;;10.88;9.65;;;17.00;43.90;;;;;;5094028;28;20039;-46
2022/03/05 07:21:24;;;;;;;10.20;9.15;;;17.00;43.90;;;;;;5094424;28;20024;-43
2022/03/05 07:23:50;;;;;;;10.82;9.65;;;17.00;43.90;;;;;;5096452;28;20390;-43
2022/03/05 07:26:17;;;;;;;10.75;9.63;;;17.00;43.90;;;;;;5098389;28;20103;-43
2022/03/05 07:28:44;;;;;;;9.48;8.48;;;17.00;43.90;;;;;;5097801;28;20016;-43
2022/03/05 07:31:10;;;;;;;11.15;10.00;;;17.00;43.80;;;;;;5096918;28;20013;-44
2022/03/05 07:33:37;;;;;;;10.60;9.45;;;17.00;43.90;;;;;;5097677;28;20020;-45
2022/03/05 07:36:06;;;;;;;9.88;8.88;;;16.90;43.80;;;;;;5097561;28;20024;-44
2022/03/05 07:38:32;;;;;;;11.00;9.57;;;17.00;43.70;;;;;;5097538;28;20057;-44
2022/03/05 07:40:59;;;;;;;10.02;9.10;;;17.00;43.80;;;;;;5097362;28;20474;-45
2022/03/05 07:43:26;;;;;;;13.13;8.88;;;17.00;43.80;;;;;;5097912;28;20102;-46
2022/03/05 07:45:52;;;;;;;11.02;9.82;;;17.00;43.70;;;;;;5097800;28;20028;-44
2022/03/05 07:48:21;;;;;;;10.25;9.15;;;17.00;43.70;;;;;;5097213;28;20016;-43
2022/03/05 07:50:47;;;;;;;10.88;9.73;;;17.00;43.70;;;;;;5096557;28;20378;-45
2022/03/05 07:53:13;;;;;;;10.35;9.23;;;17.00;43.70;;;;;;5096630;28;20103;-48
2022/03/05 07:55:40;;;;;;;10.70;9.55;;;17.00;43.70;;;;;;5096557;28;20020;-44
2022/03/05 07:58:06;;;;;;;11.65;8.68;;;16.90;43.70;;;;;;5096307;28;20020;-47
2022/03/05 08:00:32;;;;;;;10.27;9.25;;;17.00;43.80;;;;;;5097519;28;20430;-47
2022/03/05 08:02:59;;;;;;;11.70;9.75;;;17.00;43.70;;;;;;5097397;28;20031;-46
2022/03/05 08:05:25;;;;;;;10.60;9.50;;;16.90;43.70;;;;;;5097853;28;20387;-47
2022/03/05 08:07:52;;;;;;;11.60;8.70;;;17.00;43.70;;;;;;5097173;28;20091;-44
2022/03/05 08:10:18;;;;;;;10.95;9.73;;;16.90;43.60;;;;;;5095246;28;20012;-45
2022/03/05 08:12:44;;;;;;;10.95;9.32;;;17.00;43.60;;;;;;5096642;28;20023;-46
2022/03/05 08:15:11;;;;;;;13.05;8.80;;;17.00;43.70;;;;;;5095427;28;20021;-44
2022/03/05 08:17:47;;;;;;;10.95;9.23;;;16.90;43.50;;;;;;5096196;28;20447;-47
2022/03/05 08:20:13;;;;;;;9.82;8.82;;;17.00;43.70;;;;;;5095910;28;20036;-48
2022/03/05 08:22:40;;;;;;;10.15;9.05;;;17.00;43.50;;;;;;5096330;28;20431;-45
2022/03/05 08:25:06;;;;;;;11.73;9.88;;;17.00;43.50;;;;;;5095976;28;20078;-47
2022/03/05 08:27:33;;;;;;;11.55;9.43;;;17.00;43.50;;;;;;5095962;28;20513;-45
2022/03/05 08:29:59;;;;;;;10.25;9.18;;;17.00;43.50;;;;;;5096368;28;20095;-46
2022/03/05 08:32:25;;;;;;;10.20;9.10;;;17.00;43.50;;;;;;5096184;28;20042;-45
2022/03/05 08:34:52;;;;;;;11.27;9.63;;;17.00;43.40;;;;;;5094261;28;20470;-44
2022/03/05 08:37:19;;;;;;;11.05;9.90;;;17.00;43.50;;;;;;5095732;28;20028;-44
2022/03/05 08:39:45;;;;;;;10.25;9.20;;;17.00;43.50;;;;;;5095633;28;20020;-44
2022/03/05 08:42:11;;;;;;;11.05;9.25;;;17.00;43.40;;;;;;5094409;28;20016;-43
2022/03/05 08:44:38;;;;;;;11.20;9.93;;;17.00;43.40;;;;;;5095215;28;20017;-44
2022/03/05 08:47:04;;;;;;;12.90;9.25;;;17.00;43.40;;;;;;5095180;28;20017;-45
2022/03/05 08:49:30;;;;;;;9.98;8.98;;;17.00;43.40;;;;;;5095258;28;20016;-45
2022/03/05 08:51:55;;;;;;;14.15;10.20;;;17.00;43.30;;;;;;5094761;28;20471;-43
2022/03/05 08:54:22;;;;;;;10.55;9.27;;;17.00;43.90;;;;;;5095757;28;20466;-43
2022/03/05 08:56:48;;;;;;;10.48;9.48;;;17.00;43.20;;;;;;5095620;28;20031;-46
2022/03/05 08:59:14;;;;;;;10.68;9.63;;;17.00;43.20;;;;;;5095885;28;20012;-47
2022/03/05 09:01:39;;;;;;;11.75;9.27;;;17.00;43.30;;;;;;5096694;28;20382;-43
2022/03/05 09:04:06;;;;;;;11.00;9.73;;;17.00;43.30;;;;;;5096433;28;20081;-45
2022/03/05 09:06:33;;;;;;;11.50;8.82;;;17.00;43.20;;;;;;5098002;28;20024;-45
2022/03/05 09:09:00;;;;;;;11.25;10.05;;;17.00;43.20;;;;;;5097369;28;20028;-45
2022/03/05 09:11:25;;;;;;;11.35;9.38;;;17.00;43.20;;;;;;5097323;28;20081;-44
2022/03/05 09:13:52;;;;;;;11.75;9.68;;;17.00;43.10;;;;;;5096749;28;20385;-43
2022/03/05 09:16:18;;;;;;;10.45;9.38;;;17.00;43.00;;;;;;5096697;28;20025;-48
2022/03/05 09:18:44;;;;;;;10.18;9.02;;;17.00;43.00;;;;;;5096883;28;20024;-44
2022/03/05 09:21:10;;;;;;;13.82;9.38;;;17.00;43.50;;;;;;5096686;28;20012;-43
2022/03/05 09:23:37;;;;;;;10.20;8.95;;;17.00;43.10;;;;;;5096287;28;20149;-44
2022/03/05 09:26:03;;;;;;;10.07;9.07;;;17.00;43.00;;;;;;5096418;28;20078;-43
2022/03/05 09:28:28;;;;;;;13.07;9.80;;;17.00;43.00;;;;;;5096010;28;20463;-46
2022/03/05 09:30:54;;;;;;;10.95;9.52;;;17.00;43.00;;;;;;5094318;28;20017;-45
2022/03/05 09:33:22;;;;;;;9.77;8.88;;;17.00;42.90;;;;;;5094558;28;20032;-45
2022/03/05 09:35:49;;;;;;;10.35;9.32;;;17.00;42.90;;;;;;5095717;28;20018;-44
2022/03/05 09:38:15;;;;;;;10.18;9.18;;;17.00;42.90;;;;;;5095124;28;20019;-45
2022/03/05 09:40:41;;;;;;;10.18;9.18;;;17.00;42.90;;;;;;5094799;28;20082;-46
2022/03/05 09:43:07;;;;;;;11.68;10.25;;;17.00;42.90;;;;;;5094964;28;20490;-47
2022/03/05 09:45:34;;;;;;;10.82;9.25;;;17.00;42.90;;;;;;5095235;28;20016;-44
2022/03/05 09:48:00;;;;;;;10.95;9.85;;;17.00;42.90;;;;;;5094960;28;20518;-44
2022/03/05 09:50:28;;;;;;;10.70;9.70;;;17.00;42.90;;;;;;5094928;28;20019;-48
2022/03/05 09:52:55;;;;;;;10.63;9.52;;;17.00;42.90;;;;;;5093794;28;20035;-45
2022/03/05 09:55:21;;;;;;;9.93;8.93;;;17.10;43.00;;;;;;5093968;28;20024;-45
2022/03/05 09:57:46;;;;;;;9.88;8.55;;;17.00;42.90;;;;;;5094813;28;20035;-45
2022/03/05 10:00:13;;;;;;;11.32;9.57;;;17.00;42.90;;;;;;5095030;28;20020;-45
2022/03/05 10:02:38;;;;;;;11.68;9.30;;;17.10;42.90;;;;;;5093904;28;20024;-45
2022/03/05 10:05:29;;;;;;;10.48;9.38;;;17.10;42.90;;;;;;5095799;28;20016;-43
2022/03/05 10:08:10;;;;;;;10.60;9.52;;;17.00;42.90;;;;;;5095714;28;20015;-43
2022/03/05 10:10:49;;;;;;;10.47;9.47;;;17.10;42.90;;;;;;5095825;28;20471;-46
2022/03/05 10:13:26;;;;;;;10.43;9.32;;;17.10;42.90;;;;;;5094324;28;20168;-44
2022/03/05 10:15:53;;;;;;;11.00;9.35;;;17.10;42.80;;;;;;5093665;28;20024;-43
2022/03/05 10:18:46;;;;;;;10.55;8.75;;;17.10;42.90;;;;;;5093861;28;20387;-43
2022/03/05 10:21:12;;;;;;;11.32;8.93;;;17.10;42.90;;;;;;5092486;28;20562;-45
2022/03/05 10:23:42;;;;;;;11.25;10.10;;;17.10;42.90;;;;;;5092565;28;20044;-44
2022/03/05 10:26:08;;;;;;;10.20;8.82;;;17.10;42.90;;;;;;5093608;28;20008;-46
2022/03/05 10:28:34;;;;;;;11.50;9.65;;;17.10;42.90;;;;;;5092379;28;20116;-44
2022/03/05 10:31:18;;;;;;;12.00;9.50;;;17.10;42.90;;;;;;5093511;28;20047;-43
2022/03/05 10:33:45;;;;;;;11.02;9.90;;;17.10;42.90;;;;;;5093125;28;20024;-42
2022/03/05 10:36:23;;;;;;;11.73;9.50;;;17.10;42.80;;;;;;5093410;28;20012;-43
2022/03/05 10:39:02;;;;;;;10.55;9.32;;;17.10;42.80;;;;;;5093416;28;20020;-42
2022/03/05 10:41:32;;;;;;;10.95;9.85;;;17.10;42.80;;;;;;5093340;28;20073;-43
2022/03/05 10:44:05;;;;;;;10.43;9.30;;;17.10;42.90;;;;;;5075042;28;20024;-43
2022/03/05 10:46:42;;;;;;;12.52;9.45;;;17.10;42.90;;;;;;5093338;28;20112;-43
2022/03/05 10:49:18;;;;;;;10.77;9.40;;;17.10;42.90;;;;;;5093068;28;20012;-43
2022/03/05 10:51:49;;;;;;;10.20;9.13;;;17.10;42.80;;;;;;5093379;28;20031;-44
2022/03/05 10:54:28;;;;;;;14.48;8.77;;;17.10;42.80;;;;;;5092390;28;20005;-43
2022/03/05 10:56:56;;;;;;;10.98;9.75;;;17.10;42.90;;;;;;5093286;28;20021;-43
2022/03/05 10:59:22;;;;;;;11.43;9.73;;;17.10;42.90;;;;;;5093291;28;20497;-48
2022/03/05 11:01:48;;;;;;;10.38;9.30;;;17.10;42.80;;;;;;5093217;28;20016;-44
2022/03/05 11:04:14;;;;;;;10.88;9.65;;;17.10;42.90;;;;;;5091543;28;20077;-45
2022/03/05 11:06:43;;;;;;;10.30;9.18;;;17.10;42.80;;;;;;5092877;28;20107;-47
2022/03/05 11:09:12;;;;;;;10.95;9.80;;;17.10;42.80;;;;;;5093286;28;20107;-45
2022/03/05 11:11:43;;;;;;;11.05;9.57;;;17.10;42.80;;;;;;5092886;28;20008;-45
2022/03/05 11:14:15;;;;;;;11.55;10.35;;;17.10;42.80;;;;;;5093936;28;20016;-47
2022/03/05 11:16:42;;;;;;;11.07;9.98;;;17.10;42.80;;;;;;5094016;28;20032;-44
2022/03/05 11:19:08;;;;;;;11.57;9.15;;;17.10;42.80;;;;;;5091772;28;20132;-46
2022/03/05 11:21:34;;;;;;;10.60;9.43;;;17.10;42.80;;;;;;5092413;28;20016;-44
2022/03/05 11:24:00;;;;;;;10.55;9.45;;;17.10;42.80;;;;;;5093648;28;20032;-48
2022/03/05 11:26:28;;;;;;;10.82;9.73;;;17.10;42.80;;;;;;5093481;28;20023;-45
2022/03/05 11:28:54;;;;;;;10.40;9.30;;;17.10;42.80;;;;;;5092918;28;20077;-50
2022/03/05 11:31:22;;;;;;;10.88;9.13;;;17.10;42.80;;;;;;5091428;28;20466;-48
2022/03/05 11:33:49;;;;;;;12.27;9.82;;;17.10;42.80;;;;;;5092664;28;20023;-48
2022/03/05 11:36:32;;;;;;;10.48;9.48;;;17.10;42.80;;;;;;5093081;28;20024;-50
2022/03/05 11:39:20;;;;;;;9.88;8.98;;;17.10;42.80;;;;;;5093725;28;20157;-51
2022/03/05 11:41:51;;;;;;;10.30;9.30;;;17.10;42.80;;;;;;5093289;28;20091;-50
2022/03/05 11:44:17;;;;;;;;;;;17.10;42.80;;;;;;5094188;28;20040;-46
2022/03/05 11:46:43;;;;;;;10.95;9.75;;;17.10;42.80;;;;;;5094084;28;19911;-45
2022/03/05 11:49:11;;;;;;;10.77;9.48;;;17.10;42.80;;;;;;5091905;28;20490;-49
2022/03/05 11:51:56;;;;;;;10.90;9.57;;;17.10;42.80;;;;;;5092863;28;20466;-47
2022/03/05 11:54:27;;;;;;;11.90;9.50;;;17.10;42.80;;;;;;5092525;28;20058;-49
2022/03/05 11:57:13;;;;;;;10.63;9.52;;;17.10;42.80;;;;;;5075141;28;20012;-60
2022/03/05 11:59:45;;;;;;;10.90;9.80;;;17.10;42.90;;;;;;5093560;28;20020;-60
2022/03/05 12:02:11;;;;;;;10.55;9.45;;;17.10;42.80;;;;;;5093160;28;20009;-49
2022/03/05 12:04:46;;;;;;;10.48;8.85;;;17.10;42.80;;;;;;5093016;28;20378;-50
2022/03/05 12:07:13;;;;;;;11.15;10.05;;;17.10;42.80;;;;;;5092253;28;20020;-49
2022/03/05 12:10:03;;;;;;;11.45;9.38;;;17.10;42.90;;;;;;5094573;28;20013;-53
2022/03/05 12:12:28;;;;;;;10.50;9.25;;;17.10;42.80;;;;;;5096416;28;20016;-54
2022/03/05 12:15:01;;;;;;;11.50;10.30;;;17.10;42.80;;;;;;5078442;28;20081;-52
2022/03/05 12:17:33;;;;;;;10.40;9.43;;;17.10;42.80;;;;;;5096456;28;20078;-54
2022/03/05 12:19:59;;;;;;;10.57;9.45;;;17.10;42.80;;;;;;5096304;28;20043;-51
2022/03/05 12:22:25;;;;;;;9.90;8.90;;;17.10;42.80;;;;;;5096265;28;20028;-52
2022/03/05 12:24:52;;;;;;;12.18;9.60;;;17.10;42.80;;;;;;5095189;28;20149;-51
2022/03/05 12:27:18;;;;;;;10.75;9.65;;;17.10;42.80;;;;;;5098925;28;20017;-53
2022/03/05 12:29:51;;;;;;;11.55;9.30;;;17.10;42.80;;;;;;5099358;28;20012;-55
2022/03/05 12:32:18;;;;;;;10.38;9.38;;;17.10;42.80;;;;;;5098989;28;20008;-53
2022/03/05 12:34:44;;;;;;;11.15;10.05;;;17.10;42.80;;;;;;5097252;28;20024;-54
2022/03/05 12:37:10;;;;;;;11.68;10.13;;;17.10;42.80;;;;;;5097400;28;20023;-54
2022/03/05 12:39:45;;;;;;;10.77;9.75;;;17.10;42.80;;;;;;5098413;28;20012;-53
2022/03/05 12:42:11;;;;;;;10.68;9.27;;;17.20;42.80;;;;;;5097452;28;20039;-46